Time,TemperatureF,DewpointF,PressureIn,WindDirection,WindDirectionDegrees,WindSpeedMPH,WindSpeedGustMPH,Humidity,HourlyPrecipIn,Conditions,Clouds,dailyrainin,SoftwareType,DateUTC
2013-03-26 00:02:00,51.0,-99.9,30.01,SW,226,6.0,9.0,-999,-99.99,,,-99.99,,2013-03-26 07:02:00,
2013-03-26 00:12:00,51.0,-99.9,30.02,WSW,248,4.0,6.0,-999,-99.99,,,-99.99,,2013-03-26 07:12:00,
2013-03-26 00:22:00,51.0,-99.9,30.02,WSW,248,4.0,6.0,-999,-99.99,,,-99.99,,2013-03-26 07:22:00,
2013-03-26 00:33:00,51.0,-99.9,30.01,West,272,3.0,4.0,-999,-99.99,,,-99.99,,2013-03-26 07:33:00,
2013-03-26 00:43:00,51.0,-99.9,30.01,West,272,3.0,4.0,-999,-99.99,,,-99.99,,2013-03-26 07:43:00,
2013-03-26 00:53:00,51.0,-99.9,30.01,WSW,239,2.0,4.0,-999,-99.99,,,-99.99,,2013-03-26 07:53:00,
2013-03-26 01:02:00,51.0,-99.9,30.01,WSW,239,2.0,4.0,-999,-99.99,,,-99.99,,2013-03-26 08:02:00,
2013-03-26 01:13:00,51.0,-99.9,30.01,NNW,328,3.0,4.0,-999,-99.99,,,-99.99,,2013-03-26 08:13:00,
2013-03-26 01:22:00,51.0,-99.9,30.01,North,354,0.0,4.0,-999,-99.99,,,-99.99,,2013-03-26 08:22:00,
2013-03-26 01:32:00,51.0,-99.9,30.01,North,354,0.0,4.0,-999,-99.99,,,-99.99,,2013-03-26 08:32:00,
2013-03-26 01:42:00,51.0,-99.9,30.01,WSW,256,5.0,8.0,-999,-99.99,,,-99.99,,2013-03-26 08:42:00,
2013-03-26 01:52:00,51.0,-99.9,30.01,NW,324,2.0,4.0,-999,-99.99,,,-99.99,,2013-03-26 08:52:00,
2013-03-26 02:02:00,51.0,-99.9,30.01,NW,324,2.0,4.0,-999,-99.99,,,-99.99,,2013-03-26 09:02:00,
2013-03-26 02:12:00,51.0,-99.9,30.01,ENE,61,1.0,2.0,-999,-99.99,,,-99.99,,2013-03-26 09:12:00,
2013-03-26 02:22:00,51.0,-99.9,30.01,ESE,108,1.0,4.0,-999,-99.99,,,-99.99,,2013-03-26 09:22:00,
2013-03-26 02:33:00,51.0,-99.9,30.01,ESE,120,5.0,7.0,-999,-99.99,,,-99.99,,2013-03-26 09:33:00,
2013-03-26 02:43:00,51.0,-99.9,30.00,ESE,113,6.0,8.0,-999,-99.99,,,-99.99,,2013-03-26 09:43:00,
2013-03-26 02:52:00,51.0,-99.9,30.00,ESE,119,5.0,7.0,-999,-99.99,,,-99.99,,2013-03-26 09:52:00,
2013-03-26 03:03:00,51.0,-99.9,30.00,ESE,122,5.0,7.0,-999,-99.99,,,-99.99,,2013-03-26 10:03:00,
2013-03-26 03:12:00,51.0,-99.9,29.99,SE,126,5.0,6.0,-999,-99.99,,,-99.99,,2013-03-26 10:12:00,
2013-03-26 03:23:00,51.0,-99.9,29.99,SE,140,3.0,6.0,-999,-99.99,,,-99.99,,2013-03-26 10:23:00,
2013-03-26 03:33:00,51.0,-99.9,29.99,SE,131,3.0,4.0,-999,-99.99,,,-99.99,,2013-03-26 10:33:00,
2013-03-26 03:43:00,51.0,-99.9,29.99,SE,134,2.0,4.0,-999,-99.99,,,-99.99,,2013-03-26 10:43:00,
2013-03-26 03:53:00,51.0,-99.9,29.99,ESE,119,1.0,3.0,-999,-99.99,,,-99.99,,2013-03-26 10:53:00,
2013-03-26 04:03:00,51.0,-99.9,29.99,SW,227,1.0,2.0,-999,-99.99,,,-99.99,,2013-03-26 11:03:00,
2013-03-26 04:12:00,51.0,-99.9,29.99,West,267,1.0,2.0,-999,-99.99,,,-99.99,,2013-03-26 11:12:00,
2013-03-26 04:23:00,51.0,-99.9,29.99,SW,222,2.0,3.0,-999,-99.99,,,-99.99,,2013-03-26 11:23:00,
2013-03-26 04:33:00,51.0,-99.9,29.99,SSW,209,2.0,3.0,-999,-99.99,,,-99.99,,2013-03-26 11:33:00,
2013-03-26 04:43:00,51.0,-99.9,29.98,NW,304,2.0,2.0,-999,-99.99,,,-99.99,,2013-03-26 11:43:00,
2013-03-26 04:52:00,51.0,-99.9,29.98,WNW,303,2.0,2.0,-999,-99.99,,,-99.99,,2013-03-26 11:52:00,
2013-03-26 05:03:00,51.0,-99.9,29.99,WNW,293,2.0,2.0,-999,-99.99,,,-99.99,,2013-03-26 12:03:00,
2013-03-26 05:12:00,51.0,-99.9,29.99,WSW,248,0.0,1.0,-999,-99.99,,,-99.99,,2013-03-26 12:12:00,
2013-03-26 05:22:00,51.0,-99.9,29.99,NNW,339,2.0,2.0,-999,-99.99,,,-99.99,,2013-03-26 12:22:00,
2013-03-26 05:32:00,51.0,-99.9,29.98,NW,307,2.0,2.0,-999,-99.99,,,-99.99,,2013-03-26 12:32:00,
2013-03-26 05:43:00,51.0,-99.9,29.98,NW,307,2.0,2.0,-999,-99.99,,,-99.99,,2013-03-26 12:43:00,
2013-03-26 05:52:00,51.0,-99.9,29.98,NW,310,0.0,2.0,-999,-99.99,,,-99.99,,2013-03-26 12:52:00,
2013-03-26 06:03:00,51.0,-99.9,29.99,WSW,243,1.0,2.0,-999,-99.99,,,-99.99,,2013-03-26 13:03:00,
2013-03-26 06:12:00,51.0,-99.9,29.99,WSW,242,4.0,5.0,-999,-99.99,,,-99.99,,2013-03-26 13:12:00,
2013-03-26 06:23:00,51.0,-99.9,29.99,SW,236,4.0,6.0,-999,-99.99,,,-99.99,,2013-03-26 13:23:00,
2013-03-26 06:32:00,51.0,-99.9,29.99,WSW,247,4.0,6.0,-999,-99.99,,,-99.99,,2013-03-26 13:32:00,
2013-03-26 06:42:00,51.0,-99.9,29.99,WSW,247,5.0,6.0,-999,-99.99,,,-99.99,,2013-03-26 13:42:00,
2013-03-26 06:52:00,50.0,-99.9,29.99,NW,306,3.0,5.0,-999,-99.99,,,-99.99,,2013-03-26 13:52:00,
2013-03-26 07:02:00,50.0,-99.9,29.99,WNW,285,4.0,5.0,-999,-99.99,,,-99.99,,2013-03-26 14:02:00,
2013-03-26 07:12:00,50.0,-99.9,29.99,WNW,300,4.0,5.0,-999,-99.99,,,-99.99,,2013-03-26 14:12:00,
2013-03-26 07:23:00,49.0,-99.9,30.00,NW,305,3.0,4.0,-999,-99.99,,,-99.99,,2013-03-26 14:23:00,
2013-03-26 07:33:00,50.0,-99.9,30.00,NW,309,2.0,3.0,-999,-99.99,,,-99.99,,2013-03-26 14:33:00,
2013-03-26 07:42:00,50.0,-99.9,30.01,NW,320,2.0,2.0,-999,-99.99,,,-99.99,,2013-03-26 14:42:00,
2013-03-26 07:53:00,50.0,-99.9,30.01,NNE,22,3.0,3.0,-999,-99.99,,,-99.99,,2013-03-26 14:53:00,
2013-03-26 08:02:00,50.0,-99.9,30.01,NE,46,3.0,4.0,-999,-99.99,,,-99.99,,2013-03-26 15:02:00,
2013-03-26 08:12:00,50.0,-99.9,30.01,NE,40,3.0,3.0,-999,-99.99,,,-99.99,,2013-03-26 15:12:00,
2013-03-26 08:22:00,51.0,-99.9,30.01,NE,41,3.0,4.0,-999,-99.99,,,-99.99,,2013-03-26 15:22:00,
2013-03-26 08:33:00,51.0,-99.9,30.01,NNE,33,2.0,4.0,-999,-99.99,,,-99.99,,2013-03-26 15:33:00,
2013-03-26 08:43:00,52.0,-99.9,30.01,NNW,340,3.0,4.0,-999,-99.99,,,-99.99,,2013-03-26 15:43:00,
2013-03-26 08:53:00,52.0,-99.9,30.01,NNW,333,2.0,4.0,-999,-99.99,,,-99.99,,2013-03-26 15:53:00,
2013-03-26 09:03:00,51.0,-99.9,30.01,NNW,344,5.0,7.0,-999,-99.99,,,-99.99,,2013-03-26 16:03:00,
2013-03-26 09:13:00,51.0,-99.9,30.01,NNW,347,4.0,7.0,-999,-99.99,,,-99.99,,2013-03-26 16:13:00,
2013-03-26 09:23:00,52.0,-99.9,30.01,WSW,257,1.0,3.0,-999,-99.99,,,-99.99,,2013-03-26 16:23:00,
2013-03-26 09:33:00,52.0,-99.9,30.01,NNE,28,4.0,6.0,-999,-99.99,,,-99.99,,2013-03-26 16:33:00,
2013-03-26 09:43:00,52.0,-99.9,30.01,NNE,28,4.0,6.0,-999,-99.99,,,-99.99,,2013-03-26 16:43:00,
2013-03-26 09:54:00,54.0,-99.9,30.01,SE,134,2.0,3.0,-999,-99.99,,,-99.99,,2013-03-26 16:54:00,
2013-03-26 10:03:00,54.0,-99.9,30.01,NNW,331,2.0,3.0,-999,-99.99,,,-99.99,,2013-03-26 17:03:00,
2013-03-26 10:12:00,54.0,-99.9,30.01,SSE,151,3.0,6.0,-999,-99.99,,,-99.99,,2013-03-26 17:12:00,
2013-03-26 10:23:00,52.0,-99.9,30.01,SW,223,3.0,4.0,-999,-99.99,,,-99.99,,2013-03-26 17:23:00,
2013-03-26 10:33:00,52.0,-99.9,30.01,SW,223,3.0,4.0,-999,-99.99,,,-99.99,,2013-03-26 17:33:00,
2013-03-26 10:42:00,53.0,-99.9,30.02,SSW,213,3.0,5.0,-999,-99.99,,,-99.99,,2013-03-26 17:42:00,
2013-03-26 10:53:00,53.0,-99.9,30.02,SSW,213,3.0,5.0,-999,-99.99,,,-99.99,,2013-03-26 17:53:00,
2013-03-26 11:03:00,53.0,-99.9,30.02,SSW,194,4.0,7.0,-999,-99.99,,,-99.99,,2013-03-26 18:03:00,
2013-03-26 11:12:00,53.0,-99.9,30.02,SSW,194,4.0,7.0,-999,-99.99,,,-99.99,,2013-03-26 18:12:00,
2013-03-26 11:23:00,53.0,-99.9,30.02,SSW,208,5.0,7.0,-999,-99.99,,,-99.99,,2013-03-26 18:23:00,
2013-03-26 11:34:00,53.0,-99.9,30.02,SSW,201,5.0,8.0,-999,-99.99,,,-99.99,,2013-03-26 18:34:00,
2013-03-26 11:42:00,53.0,-99.9,30.02,SSW,201,5.0,8.0,-999,-99.99,,,-99.99,,2013-03-26 18:42:00,
2013-03-26 11:53:00,53.0,-99.9,30.01,SSW,194,6.0,8.0,-999,-99.99,,,-99.99,,2013-03-26 18:53:00,
2013-03-26 12:03:00,53.0,-99.9,30.01,SW,217,6.0,10.0,-999,-99.99,,,-99.99,,2013-03-26 19:03:00,
2013-03-26 12:12:00,53.0,-99.9,30.01,SW,223,7.0,11.0,-999,-99.99,,,-99.99,,2013-03-26 19:12:00,
2013-03-26 12:23:00,52.0,-99.9,30.01,SW,221,13.0,15.0,-999,-99.99,,,-99.99,,2013-03-26 19:23:00,
2013-03-26 12:33:00,52.0,-99.9,30.01,SW,222,13.0,15.0,-999,-99.99,,,-99.99,,2013-03-26 19:33:00,
2013-03-26 12:42:00,52.0,-99.9,30.01,SW,222,13.0,15.0,-999,-99.99,,,-99.99,,2013-03-26 19:42:00,
2013-03-26 12:53:00,52.0,-99.9,30.01,SW,222,13.0,15.0,-999,-99.99,,,-99.99,,2013-03-26 19:53:00,
2013-03-26 13:02:00,53.0,-99.9,30.01,SW,222,13.0,15.0,-999,-99.99,,,-99.99,,2013-03-26 20:02:00,
2013-03-26 13:13:00,53.0,-99.9,30.01,SW,222,13.0,15.0,-999,-99.99,,,-99.99,,2013-03-26 20:13:00,
2013-03-26 13:23:00,53.0,-99.9,30.01,SW,225,12.0,14.0,-999,-99.99,,,-99.99,,2013-03-26 20:23:00,
2013-03-26 13:33:00,54.0,-99.9,30.01,SW,220,9.0,13.0,-999,-99.99,,,-99.99,,2013-03-26 20:33:00,
2013-03-26 13:43:00,54.0,-99.9,30.01,SW,222,8.0,12.0,-999,-99.99,,,-99.99,,2013-03-26 20:43:00,
2013-03-26 13:53:00,54.0,-99.9,30.01,SW,216,7.0,14.0,-999,-99.99,,,-99.99,,2013-03-26 20:53:00,
2013-03-26 14:02:00,55.0,-99.9,30.01,SW,218,7.0,12.0,-999,-99.99,,,-99.99,,2013-03-26 21:02:00,
2013-03-26 14:13:00,55.0,-99.9,30.01,SW,218,7.0,12.0,-999,-99.99,,,-99.99,,2013-03-26 21:13:00,
2013-03-26 14:23:00,55.0,-99.9,30.01,SW,218,7.0,12.0,-999,-99.99,,,-99.99,,2013-03-26 21:23:00,
2013-03-26 14:33:00,54.0,-99.9,29.99,SW,218,9.0,13.0,-999,-99.99,,,-99.99,,2013-03-26 21:33:00,
2013-03-26 14:43:00,54.0,-99.9,29.99,SW,220,9.0,12.0,-999,-99.99,,,-99.99,,2013-03-26 21:43:00,
2013-03-26 14:53:00,55.0,-99.9,29.99,SW,216,6.0,11.0,-999,-99.99,,,-99.99,,2013-03-26 21:53:00,
2013-03-26 15:02:00,55.0,-99.9,29.98,SW,218,7.0,12.0,-999,-99.99,,,-99.99,,2013-03-26 22:02:00,
2013-03-26 15:12:00,55.0,-99.9,29.98,SW,218,8.0,11.0,-999,-99.99,,,-99.99,,2013-03-26 22:12:00,
2013-03-26 15:23:00,55.0,-99.9,29.98,SW,220,7.0,11.0,-999,-99.99,,,-99.99,,2013-03-26 22:23:00,
2013-03-26 15:33:00,55.0,-99.9,29.98,SW,220,7.0,11.0,-999,-99.99,,,-99.99,,2013-03-26 22:33:00,
2013-03-26 15:43:00,55.0,-99.9,29.98,SW,223,10.0,12.0,-999,-99.99,,,-99.99,,2013-03-26 22:43:00,
2013-03-26 15:53:00,56.0,-99.9,29.98,SW,218,6.0,11.0,-999,-99.99,,,-99.99,,2013-03-26 22:53:00,
2013-03-26 16:01:00,56.0,-99.9,29.97,SW,217,5.0,8.0,-999,-99.99,,,-99.99,,2013-03-26 23:01:00,
2013-03-26 16:10:00,56.0,-99.9,29.97,SSW,212,6.0,10.0,-999,-99.99,,,-99.99,,2013-03-26 23:10:00,
2013-03-26 16:23:00,56.0,-99.9,29.97,SW,218,8.0,11.0,-999,-99.99,,,-99.99,,2013-03-26 23:23:00,
2013-03-26 16:32:00,57.0,-99.9,29.97,SW,223,8.0,11.0,-999,-99.99,,,-99.99,,2013-03-26 23:32:00,
2013-03-26 16:43:00,56.0,-99.9,29.97,SW,219,9.0,13.0,-999,-99.99,,,-99.99,,2013-03-26 23:43:00,
2013-03-26 16:53:00,56.0,-99.9,29.96,SW,218,8.0,11.0,-999,-99.99,,,-99.99,,2013-03-26 23:53:00,
2013-03-26 17:02:00,56.0,-99.9,29.96,SW,220,8.0,11.0,-999,-99.99,,,-99.99,,2013-03-27 00:02:00,
2013-03-26 17:12:00,56.0,-99.9,29.96,SW,221,9.0,13.0,-999,-99.99,,,-99.99,,2013-03-27 00:12:00,
2013-03-26 17:22:00,57.0,-99.9,29.96,SSW,209,6.0,10.0,-999,-99.99,,,-99.99,,2013-03-27 00:22:00,
2013-03-26 17:33:00,57.0,-99.9,29.96,SSW,209,6.0,10.0,-999,-99.99,,,-99.99,,2013-03-27 00:33:00,
2013-03-26 17:42:00,57.0,-99.9,29.96,SSW,205,5.0,9.0,-999,-99.99,,,-99.99,,2013-03-27 00:42:00,
2013-03-26 17:52:00,57.0,-99.9,29.96,SSW,205,5.0,9.0,-999,-99.99,,,-99.99,,2013-03-27 00:52:00,
2013-03-26 18:02:00,57.0,-99.9,29.95,SW,220,5.0,8.0,-999,-99.99,,,-99.99,,2013-03-27 01:02:00,
2013-03-26 18:12:00,57.0,-99.9,29.95,SW,220,5.0,8.0,-999,-99.99,,,-99.99,,2013-03-27 01:12:00,
2013-03-26 18:23:00,57.0,-99.9,29.95,SSW,203,3.0,6.0,-999,-99.99,,,-99.99,,2013-03-27 01:23:00,
2013-03-26 18:33:00,57.0,-99.9,29.95,South,181,4.0,6.0,-999,-99.99,,,-99.99,,2013-03-27 01:33:00,
2013-03-26 18:43:00,57.0,-99.9,29.95,South,181,4.0,6.0,-999,-99.99,,,-99.99,,2013-03-27 01:43:00,
2013-03-26 18:53:00,57.0,-99.9,29.96,SSW,207,5.0,8.0,-999,-99.99,,,-99.99,,2013-03-27 01:53:00,
2013-03-26 19:03:00,56.0,-99.9,29.96,SSE,167,7.0,9.0,-999,-99.99,,,-99.99,,2013-03-27 02:03:00,
2013-03-26 19:12:00,56.0,-99.9,29.96,SSE,167,7.0,9.0,-999,-99.99,,,-99.99,,2013-03-27 02:12:00,
2013-03-26 19:22:00,56.0,-99.9,29.96,SSW,196,6.0,9.0,-999,-99.99,,,-99.99,,2013-03-27 02:22:00,
2013-03-26 19:32:00,56.0,-99.9,29.96,South,180,5.0,9.0,-999,-99.99,,,-99.99,,2013-03-27 02:32:00,
2013-03-26 19:43:00,56.0,-99.9,29.96,South,183,4.0,7.0,-999,-99.99,,,-99.99,,2013-03-27 02:43:00,
2013-03-26 19:53:00,56.0,-99.9,29.96,South,190,6.0,9.0,-999,-99.99,,,-99.99,,2013-03-27 02:53:00,
2013-03-26 20:02:00,56.0,-99.9,29.96,SSW,210,6.0,9.0,-999,-99.99,,,-99.99,,2013-03-27 03:02:00,
2013-03-26 20:12:00,56.0,-99.9,29.96,SSW,210,6.0,9.0,-999,-99.99,,,-99.99,,2013-03-27 03:12:00,
2013-03-26 20:22:00,56.0,-99.9,29.96,WSW,252,8.0,12.0,-999,-99.99,,,-99.99,,2013-03-27 03:22:00,
2013-03-26 20:33:00,55.0,-99.9,29.97,SW,228,8.0,10.0,-999,-99.99,,,-99.99,,2013-03-27 03:33:00,
2013-03-26 20:43:00,55.0,-99.9,29.96,SW,228,9.0,11.0,-999,-99.99,,,-99.99,,2013-03-27 03:43:00,
2013-03-26 20:53:00,55.0,-99.9,29.97,WSW,245,8.0,11.0,-999,-99.99,,,-99.99,,2013-03-27 03:53:00,
2013-03-26 21:03:00,56.0,-99.9,29.97,WSW,255,6.0,10.0,-999,-99.99,,,-99.99,,2013-03-27 04:03:00,
2013-03-26 21:13:00,55.0,-99.9,29.97,WSW,252,4.0,7.0,-999,-99.99,,,-99.99,,2013-03-27 04:13:00,
2013-03-26 21:23:00,55.0,-99.9,29.98,SW,223,6.0,9.0,-999,-99.99,,,-99.99,,2013-03-27 04:23:00,
2013-03-26 21:33:00,55.0,-99.9,29.98,South,180,4.0,6.0,-999,-99.99,,,-99.99,,2013-03-27 04:33:00,
2013-03-26 21:43:00,55.0,-99.9,29.98,SW,215,2.0,4.0,-999,-99.99,,,-99.99,,2013-03-27 04:43:00,
2013-03-26 21:53:00,55.0,-99.9,29.98,SW,215,2.0,4.0,-999,-99.99,,,-99.99,,2013-03-27 04:53:00,
2013-03-26 22:03:00,55.0,-99.9,29.98,WSW,239,3.0,4.0,-999,-99.99,,,-99.99,,2013-03-27 05:03:00,
2013-03-26 22:13:00,55.0,-99.9,29.99,WNW,289,2.0,4.0,-999,-99.99,,,-99.99,,2013-03-27 05:13:00,
2013-03-26 22:23:00,55.0,-99.9,29.99,West,261,2.0,4.0,-999,-99.99,,,-99.99,,2013-03-27 05:23:00,
2013-03-26 22:33:00,54.0,-99.9,29.99,WNW,297,4.0,8.0,-999,-99.99,,,-99.99,,2013-03-27 05:33:00,
2013-03-26 22:42:00,55.0,-99.9,29.99,WNW,297,4.0,8.0,-999,-99.99,,,-99.99,,2013-03-27 05:42:00,
2013-03-26 22:53:00,54.0,-99.9,29.99,West,274,3.0,4.0,-999,-99.99,,,-99.99,,2013-03-27 05:53:00,
2013-03-26 23:02:00,54.0,-99.9,29.99,West,265,2.0,3.0,-999,-99.99,,,-99.99,,2013-03-27 06:02:00,
2013-03-26 23:12:00,55.0,-99.9,29.98,WNW,290,2.0,3.0,-999,-99.99,,,-99.99,,2013-03-27 06:12:00,
2013-03-26 23:23:00,54.0,-99.9,29.98,WNW,292,4.0,5.0,-999,-99.99,,,-99.99,,2013-03-27 06:23:00,
2013-03-26 23:32:00,54.0,-99.9,29.98,WNW,291,3.0,5.0,-999,-99.99,,,-99.99,,2013-03-27 06:32:00,
2013-03-26 23:43:00,54.0,-99.9,29.99,WNW,284,5.0,6.0,-999,-99.99,,,-99.99,,2013-03-27 06:43:00,
2013-03-26 23:53:00,55.0,-99.9,29.99,WSW,248,2.0,6.0,-999,-99.99,,,-99.99,,2013-03-27 06:53:00,